Back to Top
Banner_Quays_at_Mast_2020.jpeg
Banner_VERITY.jpeg
Banner_P42_Kinsale_2004.jpeg
Superyacht_SCOUT.jpg
Kinsale_Trawlers_Banner.jpeg
previous arrow
next arrow

Port Arrivals Report (AIS)

This report is generated from collected AIS (Automated Identification System) signals from vessels entering port.

IMO MMSI Class Flag Vessel Name Vessel type Nav Status Destination Call Sign Latitude Longitude Speed (kts) Course (T) Draught (m) LOA (m) Beam (m) Timestamp
0 250103750 B IE HARPY DREDGING / UNDERWATER Ops. - EI7410 51.6887 -8.50164 7.3 347.1 0 13 4 2024-05-02 12:07:44
9049152 250000466 A IE NAOMH PEADAR 2 FISHING. - SEARCHING FOR FISH EI8173 51.6884 -8.4975 8.2 349.6 5.2 23 8 2024-05-02 02:05:05
9068598 250000608 A IE HANNAH J - Undefined EI8715 51.6878 -8.49922 8.7 356 0 20 6 2024-05-01 20:40:19
0 250106680 B IE CIRRUS SAILING. - EI7621 51.6874 -8.50198 4.6 341.4 0 10 4 2024-05-01 20:13:58
0 250001875 B IE REAVRA TOO SAILING. - EIHT4 51.6876 -8.50133 6.2 337 0 0 0 2024-05-01 20:07:50
0 250005517 B IE HAFOD Pleasure craft - EI-VE-3 51.6872 -8.49994 4.3 356.5 0 10 3 2024-05-01 16:56:20
0 250103750 B IE HARPY DREDGING / UNDERWATER Ops. - EI7410 51.6913 -8.50174 12.4 337.1 0 13 4 2024-05-01 16:42:08
0 232016609 B GB RNLI LIFEBOAT B-909 SAR. - 51.6928 -8.50113 35.5 338.4 0 8 2 2024-04-30 19:46:09
0 250001825 B IE OCEAN RANGER Pleasure craft - EIHP5 51.6891 -8.50408 17.7 290 0 12 5 2024-04-30 19:20:06
0 227606160 B FR NJORD SAILING. - FGD9238 51.6881 -8.49837 9 349.9 0 12 4 2024-04-28 17:47:39
0 232032968 B GB SAORSA SAILING. - MIPN5 51.6874 -8.4984 7.9 354.3 0 13 4 2024-04-28 15:51:47
0 250005343 B IE ILEN PASSENGER. - EIUO2 51.6888 -8.50072 6.1 351.9 0 15 3 2024-04-28 15:32:03
0 232017954 B GB HARMATTAN SAILING. - MDVE4 51.6875 -8.49755 4.9 11.1 0 11 4 2024-04-28 13:56:25
0 250103750 B IE HARPY DREDGING / UNDERWATER Ops. - EI7410 51.6886 -8.49896 6.5 354.1 0 13 4 2024-04-28 12:33:53
0 227606160 B FR NJORD SAILING. - FGD9238 51.6872 -8.5001 4.5 2.4 0 12 4 2024-04-27 21:48:13
0 250103750 B IE HARPY DREDGING / UNDERWATER Ops. - EI7410 51.6876 -8.50152 10.4 344.2 0 13 4 2024-04-27 17:24:02
0 250006598 B IE AN FANAI Pleasure craft - EI ZO 6 51.6883 -8.50122 6.3 341.9 0 8 3 2024-04-27 16:23:30
0 250001206 B IE CAPELLA OF KINSALE SAILING. - EIDI6 51.6876 -8.49961 7.6 345.7 0 12 4 2024-04-27 16:01:29
0 250005697 B IE FLYOVER SAILING. - EI-VW-2 51.6877 -8.49948 3.8 352.8 0 10 4 2024-04-27 15:52:18
0 250005095 B IE GGENESIS SAILING. - EITK2 51.6877 -8.4999 6.4 355.1 0 11 4 2024-04-27 15:48:07